Time;durP1;ratioP1;P1;durP2;ratioP2;P2;SDS_P1;SDS_P2;PMS_P1;PMS_P2;Temp;Humidity;BMP_temperature;BMP_pressure;BME280_temperature;BME280_humidity;BME280_pressure;Samples;Min_cycle;Max_cycle;Signal;HPM_P1;HPM_P2
2022/12/06 00:00:37;;;;;;;5.32;3.65;;;10.30;82.70;;;;;;5024798;28;20018;-82
2022/12/06 00:03:03;;;;;;;5.80;3.85;;;10.20;82.70;;;;;;5024755;28;20544;-80
2022/12/06 00:05:30;;;;;;;5.53;3.88;;;10.20;82.70;;;;;;5013781;28;20442;-81
2022/12/06 00:07:56;;;;;;;5.90;4.18;;;10.20;83.20;;;;;;5021398;28;20032;-82
2022/12/06 00:10:21;;;;;;;5.65;3.85;;;10.20;82.80;;;;;;5021774;28;20109;-82
2022/12/06 00:12:47;;;;;;;5.68;4.07;;;10.20;82.80;;;;;;5023219;28;20394;-81
2022/12/06 00:15:12;;;;;;;5.32;3.85;;;10.20;82.80;;;;;;5025247;28;20029;-82
2022/12/06 00:17:38;;;;;;;5.25;3.67;;;10.20;82.80;;;;;;5024003;28;20080;-82
2022/12/06 00:20:05;;;;;;;5.47;3.80;;;10.20;82.80;;;;;;5021926;28;20038;-82
2022/12/06 00:22:30;;;;;;;5.43;3.80;;;10.20;82.80;;;;;;5021373;28;20022;-81
2022/12/06 00:24:56;;;;;;;5.38;3.70;;;10.20;82.80;;;;;;5020793;28;20094;-81
2022/12/06 00:27:21;;;;;;;5.05;3.63;;;10.20;82.80;;;;;;5020624;28;20030;-81
2022/12/06 00:29:47;;;;;;;5.75;3.80;;;10.20;82.80;;;;;;5022391;28;20010;-81
2022/12/06 00:32:12;;;;;;;5.85;4.07;;;10.20;82.80;;;;;;5021102;28;20034;-81
2022/12/06 00:34:38;;;;;;;5.70;3.80;;;10.20;82.80;;;;;;5021192;28;20072;-83
2022/12/06 00:37:03;;;;;;;5.53;3.97;;;10.20;82.80;;;;;;5020956;28;20524;-81
2022/12/06 00:39:29;;;;;;;5.60;3.80;;;10.20;82.80;;;;;;5018544;28;20034;-80
2022/12/06 00:41:55;;;;;;;5.55;3.72;;;10.20;82.90;;;;;;5002934;28;20026;-81
2022/12/06 00:44:20;;;;;;;5.32;3.70;;;10.20;82.80;;;;;;5017897;28;20512;-82
2022/12/06 00:46:46;;;;;;;5.65;3.92;;;10.20;82.80;;;;;;5021263;28;20033;-82
2022/12/06 00:49:12;;;;;;;5.82;3.67;;;10.20;82.90;;;;;;5020345;28;20026;-81
2022/12/06 00:51:38;;;;;;;5.55;3.60;;;10.20;82.80;;;;;;5017722;28;20018;-82
2022/12/06 00:54:05;;;;;;;5.20;3.60;;;10.20;82.80;;;;;;5018264;28;20405;-81
2022/12/06 00:56:31;;;;;;;5.10;3.70;;;10.20;82.80;;;;;;5016711;28;20118;-81
2022/12/06 00:58:56;;;;;;;5.57;3.70;;;10.20;82.80;;;;;;5017757;28;20025;-81
2022/12/06 01:01:25;;;;;;;5.63;3.92;;;10.10;82.80;;;;;;5010275;28;20037;-81
2022/12/06 01:03:53;;;;;;;5.55;3.92;;;10.10;82.70;;;;;;5017689;28;20497;-81
2022/12/06 01:06:21;;;;;;;5.65;3.70;;;10.20;82.80;;;;;;5015366;28;20022;-81
2022/12/06 01:08:47;;;;;;;5.07;3.80;;;10.20;82.80;;;;;;5015276;28;20056;-81
2022/12/06 01:11:15;;;;;;;5.70;3.70;;;10.20;82.70;;;;;;5018687;28;20030;-81
2022/12/06 01:13:41;;;;;;;5.60;3.78;;;10.20;82.80;;;;;;5019215;28;20077;-81
2022/12/06 01:16:13;;;;;;;5.53;3.78;;;10.20;82.70;;;;;;5016146;28;20084;-81
2022/12/06 01:18:40;;;;;;;5.13;3.38;;;10.20;82.70;;;;;;5013007;28;20117;-82
2022/12/06 01:21:08;;;;;;;4.90;3.45;;;10.20;82.80;;;;;;5011870;28;20022;-81
2022/12/06 01:23:34;;;;;;;4.93;3.35;;;10.20;82.70;;;;;;4998387;28;20414;-83
2022/12/06 01:25:59;;;;;;;5.60;3.78;;;10.20;82.70;;;;;;4997447;28;20027;-81
2022/12/06 01:28:25;;;;;;;5.65;4.00;;;10.20;82.80;;;;;;4994667;28;20030;-81
2022/12/06 01:30:51;;;;;;;4.72;3.42;;;10.20;82.80;;;;;;4994463;28;20029;-82
2022/12/06 01:33:16;;;;;;;5.95;3.92;;;10.20;82.70;;;;;;4999246;28;20030;-82
2022/12/06 01:35:42;;;;;;;4.88;3.50;;;10.20;83.20;;;;;;5024944;28;20030;-83
2022/12/06 01:38:08;;;;;;;5.53;3.72;;;10.20;82.70;;;;;;5028370;28;20030;-82
2022/12/06 01:40:44;;;;;;;5.22;3.47;;;10.20;82.70;;;;;;5028654;28;20029;-84
2022/12/06 01:43:33;;;;;;;5.18;3.67;;;10.20;82.70;;;;;;5027774;28;20030;-81
2022/12/06 01:46:11;;;;;;;6.10;3.67;;;10.20;82.70;;;;;;5029893;28;20022;-83
2022/12/06 01:48:38;;;;;;;5.35;3.78;;;10.20;82.70;;;;;;5029122;28;20026;-83
2022/12/06 01:51:06;;;;;;;5.78;3.70;;;10.20;82.70;;;;;;5022153;28;20021;-82
2022/12/06 01:53:32;;;;;;;5.18;3.50;;;10.20;82.70;;;;;;5016568;28;20026;-82
2022/12/06 01:55:58;;;;;;;5.30;3.80;;;10.20;82.70;;;;;;5023247;28;20014;-82
2022/12/06 01:58:30;;;;;;;5.20;3.60;;;10.20;82.70;;;;;;5026045;28;20092;-83
2022/12/06 02:00:56;;;;;;;5.38;3.80;;;10.20;82.70;;;;;;5025192;28;20026;-83
2022/12/06 02:03:26;;;;;;;5.10;3.63;;;10.20;82.70;;;;;;5027088;28;20050;-83
2022/12/06 02:05:53;;;;;;;4.78;3.33;;;10.20;82.60;;;;;;5026126;28;20018;-81
2022/12/06 02:08:20;;;;;;;4.70;3.50;;;10.20;82.70;;;;;;5025120;28;20022;-81
2022/12/06 02:10:45;;;;;;;5.40;3.53;;;10.20;82.70;;;;;;5023528;28;20402;-82
2022/12/06 02:13:11;;;;;;;5.10;3.55;;;10.20;82.70;;;;;;5024477;28;20026;-82
2022/12/06 02:15:59;;;;;;;5.47;3.40;;;10.20;82.70;;;;;;5023467;28;20033;-81
2022/12/06 02:18:39;;;;;;;5.32;3.40;;;10.20;82.70;;;;;;5020334;28;20030;-82
2022/12/06 02:21:15;;;;;;;5.43;3.50;;;10.20;82.60;;;;;;5022513;28;20504;-81
2022/12/06 02:24:37;;;;;;;4.45;3.17;;;10.20;82.70;;;;;;5022059;28;20022;-83
2022/12/06 02:27:33;;;;;;;5.18;3.40;;;10.20;82.70;;;;;;5002307;28;20030;-81
2022/12/06 02:30:19;;;;;;;5.22;3.70;;;10.20;82.70;;;;;;5012696;28;20018;-82
2022/12/06 02:33:19;;;;;;;5.07;3.42;;;10.20;82.60;;;;;;5012267;28;20034;-83
2022/12/06 02:36:15;;;;;;;5.13;3.53;;;10.30;82.60;;;;;;5045492;28;20052;-83
2022/12/06 02:39:25;;;;;;;5.40;3.80;;;10.30;82.60;;;;;;5020154;28;20081;-83
2022/12/06 02:42:21;;;;;;;5.07;3.58;;;10.30;82.50;;;;;;5019085;28;20097;-82
2022/12/06 02:44:52;;;;;;;5.13;3.65;;;10.30;82.40;;;;;;5038269;28;20026;-84
2022/12/06 02:47:21;;;;;;;5.05;3.33;;;10.30;82.50;;;;;;5026902;28;20022;-82
2022/12/06 02:49:49;;;;;;;5.90;3.75;;;10.20;82.40;;;;;;5026084;28;20472;-83
2022/12/06 02:52:17;;;;;;;5.03;3.40;;;10.30;82.50;;;;;;5027834;28;20026;-82
2022/12/06 02:54:46;;;;;;;4.85;3.25;;;10.20;82.50;;;;;;5026705;28;20038;-81
2022/12/06 02:57:12;;;;;;;5.32;3.50;;;10.20;82.60;;;;;;5025864;28;20034;-85
2022/12/06 02:59:37;;;;;;;5.03;3.70;;;10.20;82.60;;;;;;5026965;28;20036;-81
2022/12/06 03:02:07;;;;;;;5.25;3.63;;;10.20;82.70;;;;;;5025835;28;20052;-84
2022/12/06 03:04:46;;;;;;;5.05;3.28;;;10.20;82.70;;;;;;5026041;28;20025;-84
2022/12/06 03:07:38;;;;;;;5.10;3.55;;;10.20;82.80;;;;;;5023850;28;20025;-84
2022/12/06 03:10:24;;;;;;;5.03;3.33;;;10.20;82.80;;;;;;5024855;28;20497;-81
2022/12/06 03:13:06;;;;;;;5.10;3.55;;;10.20;82.80;;;;;;5022579;28;20530;-81
2022/12/06 03:15:36;;;;;;;4.88;3.40;;;10.20;82.90;;;;;;5023216;28;20071;-83
2022/12/06 03:18:14;;;;;;;4.82;3.30;;;10.20;82.90;;;;;;5018138;28;20477;-82
2022/12/06 03:20:53;;;;;;;5.18;3.70;;;10.20;82.90;;;;;;5017939;28;20041;-84
2022/12/06 03:23:28;;;;;;;4.57;3.30;;;10.20;82.90;;;;;;5012445;28;20490;-82
2022/12/06 03:25:58;;;;;;;5.57;3.70;;;10.20;82.90;;;;;;5015856;28;20407;-82
2022/12/06 03:28:24;;;;;;;4.97;3.40;;;10.10;82.90;;;;;;5019866;28;20044;-81
2022/12/06 03:30:52;;;;;;;4.80;3.28;;;10.20;83.00;;;;;;5022744;28;20591;-82
2022/12/06 03:33:22;;;;;;;4.78;3.40;;;10.20;82.90;;;;;;5020659;28;20030;-82
2022/12/06 03:35:51;;;;;;;5.75;3.88;;;10.10;82.90;;;;;;5008520;28;20075;-81
2022/12/06 03:38:24;;;;;;;5.05;3.53;;;10.20;82.90;;;;;;5017841;28;20029;-82
2022/12/06 03:40:52;;;;;;;5.22;3.33;;;10.20;82.90;;;;;;5015660;28;20037;-80
2022/12/06 03:43:18;;;;;;;4.85;3.55;;;10.10;82.90;;;;;;5017827;28;20022;-82
2022/12/06 03:46:06;;;;;;;5.45;3.67;;;10.20;82.90;;;;;;5019296;28;20053;-82
2022/12/06 03:48:36;;;;;;;5.45;3.72;;;10.20;82.90;;;;;;5011399;28;20034;-82
2022/12/06 03:51:06;;;;;;;4.70;3.33;;;10.10;82.90;;;;;;5018161;28;20056;-83
2022/12/06 03:53:32;;;;;;;5.20;3.30;;;10.20;83.00;;;;;;5018733;28;20489;-82
2022/12/06 03:55:58;;;;;;;4.70;3.53;;;10.10;82.90;;;;;;5018618;28;20037;-83
2022/12/06 03:58:24;;;;;;;4.70;3.10;;;10.10;82.90;;;;;;5016436;28;20029;-82
2022/12/06 04:00:50;;;;;;;5.15;3.70;;;10.10;82.90;;;;;;5011129;28;20035;-83
2022/12/06 04:03:15;;;;;;;4.70;3.28;;;10.20;83.00;;;;;;5006390;28;20043;-82
2022/12/06 04:05:41;;;;;;;5.13;3.40;;;10.10;82.90;;;;;;5012555;28;20029;-82
2022/12/06 04:08:06;;;;;;;4.95;3.40;;;10.10;82.90;;;;;;5013461;28;20080;-80
2022/12/06 04:10:32;;;;;;;4.78;3.38;;;10.10;82.90;;;;;;5014382;28;20037;-82
2022/12/06 04:13:00;;;;;;;4.70;3.30;;;10.10;82.90;;;;;;5017448;28;20027;-83
2022/12/06 04:15:29;;;;;;;5.05;3.42;;;10.20;82.90;;;;;;5017886;28;20080;-84
2022/12/06 04:18:12;;;;;;;4.30;3.30;;;10.10;82.80;;;;;;5018416;28;20033;-84
2022/12/06 04:23:52;;;;;;;5.05;3.30;;;10.10;82.90;;;;;;5011427;28;20040;-82
2022/12/06 04:26:20;;;;;;;5.15;3.45;;;10.10;82.90;;;;;;5016014;28;20026;-82
2022/12/06 04:39:44;;;;;;;4.72;3.30;;;10.10;82.80;;;;;;5016225;28;20417;-82
2022/12/06 04:44:56;;;;;;;4.70;3.10;;;10.10;82.80;;;;;;5018870;28;20406;-82
2022/12/06 04:47:21;;;;;;;4.45;3.08;;;10.10;82.80;;;;;;5016546;28;20023;-82
2022/12/06 04:49:47;;;;;;;5.13;3.35;;;10.10;82.80;;;;;;5017080;28;20018;-81
2022/12/06 04:52:13;;;;;;;4.65;3.38;;;10.10;82.80;;;;;;4998589;28;20026;-81
2022/12/06 04:54:38;;;;;;;5.20;3.50;;;10.10;82.80;;;;;;5015695;28;20028;-82
2022/12/06 04:57:09;;;;;;;4.63;3.17;;;10.10;82.80;;;;;;5016837;28;20033;-82
2022/12/06 04:59:38;;;;;;;4.67;3.30;;;10.10;82.80;;;;;;5017287;28;20026;-83
2022/12/06 05:02:04;;;;;;;4.82;3.45;;;10.20;82.90;;;;;;5018979;28;20289;-84
2022/12/06 05:04:31;;;;;;;4.78;3.10;;;10.10;82.80;;;;;;5023136;28;20045;-84
2022/12/06 05:06:56;;;;;;;4.57;3.38;;;10.10;82.80;;;;;;5028693;28;20053;-83
2022/12/06 05:09:22;;;;;;;4.95;3.28;;;10.10;82.80;;;;;;5030450;28;20029;-82
2022/12/06 05:11:47;;;;;;;5.30;3.45;;;10.10;82.80;;;;;;5027204;28;20454;-82
2022/12/06 05:14:13;;;;;;;4.30;3.20;;;10.10;82.80;;;;;;5029945;28;20108;-82
2022/12/06 05:16:38;;;;;;;4.88;3.47;;;10.10;82.80;;;;;;5023635;28;20054;-85
2022/12/06 05:19:04;;;;;;;4.47;3.17;;;10.10;82.80;;;;;;5018571;28;20029;-86
2022/12/06 05:21:30;;;;;;;5.28;3.60;;;10.10;82.80;;;;;;5017704;28;20551;-84
2022/12/06 05:23:56;;;;;;;4.80;3.28;;;10.10;82.80;;;;;;5023511;28;20034;-81
2022/12/06 05:26:25;;;;;;;4.60;3.05;;;10.20;82.90;;;;;;5029374;28;20022;-85
2022/12/06 05:28:51;;;;;;;4.60;3.20;;;10.10;82.80;;;;;;5021100;28;20022;-83
2022/12/06 05:31:17;;;;;;;4.93;3.45;;;10.10;82.90;;;;;;5025844;28;20078;-82
2022/12/06 05:33:43;;;;;;;5.68;3.22;;;10.20;82.90;;;;;;5026731;28;20076;-83
2022/12/06 05:36:10;;;;;;;4.80;3.40;;;10.20;82.80;;;;;;5027546;28;20026;-83
2022/12/06 05:38:36;;;;;;;5.43;3.40;;;10.20;82.70;;;;;;5023208;28;20041;-82
2022/12/06 05:41:03;;;;;;;4.80;3.30;;;10.20;82.80;;;;;;5013613;28;20479;-82
2022/12/06 05:43:29;;;;;;;4.47;3.13;;;10.20;82.70;;;;;;5023037;28;20453;-79
2022/12/06 05:45:55;;;;;;;4.82;3.15;;;10.20;83.20;;;;;;5023240;28;20025;-83
2022/12/06 05:48:20;;;;;;;5.25;3.55;;;10.20;82.60;;;;;;5020857;28;20033;-81
2022/12/06 05:50:47;;;;;;;4.40;3.10;;;10.20;82.60;;;;;;5002934;28;20500;-81
2022/12/06 05:53:13;;;;;;;4.43;3.10;;;10.20;83.00;;;;;;5020140;28;20041;-81
2022/12/06 05:55:39;;;;;;;5.30;3.58;;;10.20;82.50;;;;;;5022139;28;20094;-82
2022/12/06 05:58:04;;;;;;;4.88;3.30;;;10.20;82.50;;;;;;5017244;28;20485;-75
2022/12/06 06:00:30;;;;;;;5.15;3.40;;;10.20;82.50;;;;;;5014910;28;20037;-81
2022/12/06 06:02:56;;;;;;;5.10;3.30;;;10.20;82.60;;;;;;5022273;28;20018;-84
2022/12/06 06:05:21;;;;;;;5.40;3.63;;;10.20;82.60;;;;;;5022932;28;20030;-85
2022/12/06 06:07:47;;;;;;;4.03;2.92;;;10.20;82.70;;;;;;5022254;28;20022;-85
2022/12/06 06:10:13;;;;;;;5.03;3.60;;;10.20;82.80;;;;;;5018906;28;20478;-85
2022/12/06 06:12:38;;;;;;;4.70;3.30;;;10.10;82.80;;;;;;5016224;28;20031;-85
2022/12/06 06:15:06;;;;;;;5.00;3.42;;;10.20;82.90;;;;;;5000398;28;20042;-85
2022/12/06 06:17:32;;;;;;;6.07;3.78;;;10.10;82.80;;;;;;5006288;28;20022;-82
2022/12/06 06:19:58;;;;;;;5.15;3.60;;;10.10;82.90;;;;;;5018428;28;20172;-80
2022/12/06 06:22:24;;;;;;;4.63;3.25;;;10.10;82.90;;;;;;5017963;28;20070;-83
2022/12/06 06:24:50;;;;;;;15.13;4.97;;;10.10;82.90;;;;;;5021124;28;20033;-81
2022/12/06 06:27:16;;;;;;;8.57;4.90;;;10.10;82.80;;;;;;5014956;28;20023;-84
2022/12/06 06:29:41;;;;;;;8.05;4.38;;;10.10;81.50;;;;;;5012931;28;20113;-85
2022/12/06 06:32:07;;;;;;;8.13;4.25;;;10.10;81.50;;;;;;5014942;28;20409;-85
2022/12/06 06:34:32;;;;;;;7.32;3.83;;;10.10;81.50;;;;;;5014274;28;20033;-84
2022/12/06 06:36:58;;;;;;;7.18;4.40;;;10.10;82.00;;;;;;5009357;28;20102;-84
2022/12/06 06:39:24;;;;;;;7.78;4.30;;;10.10;82.30;;;;;;5017434;28;20026;-84
2022/12/06 06:41:49;;;;;;;9.23;4.47;;;10.20;82.70;;;;;;4999673;28;20022;-82
2022/12/06 06:44:15;;;;;;;10.57;4.15;;;10.20;82.90;;;;;;4997294;28;20498;-83
2022/12/06 06:46:40;;;;;;;8.35;4.00;;;10.20;82.70;;;;;;4993820;28;20541;-81
2022/12/06 06:49:06;;;;;;;9.80;4.10;;;10.30;82.80;;;;;;4995404;28;20018;-85
2022/12/06 06:51:32;;;;;;;6.78;3.95;;;10.30;82.90;;;;;;4994408;28;20030;-84
2022/12/06 06:53:58;;;;;;;6.50;3.80;;;10.40;83.00;;;;;;5002150;28;20265;-86
2022/12/06 06:56:24;;;;;;;9.63;4.10;;;10.40;83.10;;;;;;5017171;28;20030;-85
2022/12/06 06:58:50;;;;;;;7.30;4.10;;;10.50;83.40;;;;;;5016901;28;20030;-85
2022/12/06 07:01:20;;;;;;;7.03;4.40;;;10.50;83.90;;;;;;5023798;28;20082;-85
2022/12/06 07:03:46;;;;;;;7.35;3.97;;;10.60;84.10;;;;;;5016811;28;20021;-84
2022/12/06 07:06:12;;;;;;;7.22;4.10;;;10.60;84.20;;;;;;5017718;28;20385;-85
2022/12/06 07:08:39;;;;;;;8.98;4.10;;;10.70;84.40;;;;;;5015888;28;20025;-78
2022/12/06 07:11:05;;;;;;;8.25;4.32;;;10.80;84.80;;;;;;5007436;28;20037;-80
2022/12/06 07:13:31;;;;;;;6.78;4.00;;;10.90;85.60;;;;;;5010427;28;20413;-79
2022/12/06 07:15:57;;;;;;;8.52;4.13;;;11.00;86.40;;;;;;5013378;28;20025;-85
2022/12/06 07:18:24;;;;;;;8.23;4.03;;;11.10;86.50;;;;;;5016022;28;20069;-84
2022/12/06 07:21:02;;;;;;;7.68;4.05;;;11.20;87.40;;;;;;5013536;28;20394;-85
2022/12/06 07:23:28;;;;;;;8.27;4.05;;;11.30;87.50;;;;;;5012428;28;20076;-85
2022/12/06 07:26:15;;;;;;;6.78;4.30;;;11.40;88.40;;;;;;4994713;28;20030;-85
2022/12/06 07:28:43;;;;;;;8.38;4.28;;;11.50;88.70;;;;;;5005145;28;20028;-85
2022/12/06 07:31:26;;;;;;;7.38;4.80;;;11.60;88.80;;;;;;5012947;28;20038;-85
2022/12/06 07:33:54;;;;;;;9.45;4.93;;;11.60;88.80;;;;;;5014493;28;20113;-84
2022/12/06 07:36:21;;;;;;;7.20;4.35;;;11.70;89.60;;;;;;5014982;28;20084;-85
2022/12/06 07:38:48;;;;;;;8.98;4.78;;;11.70;89.20;;;;;;5015041;28;20029;-85
2022/12/06 07:46:44;;;;;;;8.65;4.47;;;11.80;89.50;;;;;;4995401;28;20041;-84
2022/12/06 07:49:09;;;;;;;9.50;4.35;;;11.90;89.70;;;;;;4998692;28;20018;-85
2022/12/06 07:51:36;;;;;;;9.75;4.70;;;11.90;89.90;;;;;;5013556;28;20037;-85
2022/12/06 07:54:02;;;;;;;11.65;5.10;;;11.90;89.60;;;;;;5009673;28;20041;-85
2022/12/06 07:56:27;;;;;;;8.80;4.70;;;12.00;89.50;;;;;;4993240;28;20022;-86
2022/12/06 07:58:53;;;;;;;8.93;4.30;;;12.00;89.00;;;;;;5007468;28;20452;-85
2022/12/06 08:01:19;;;;;;;11.77;4.78;;;12.00;88.60;;;;;;5005437;28;20462;-87
2022/12/06 08:03:45;;;;;;;9.45;4.60;;;12.10;87.90;;;;;;5018817;28;20462;-86
2022/12/06 08:06:10;;;;;;;10.60;4.70;;;12.10;88.00;;;;;;5019403;28;20155;-86
2022/12/06 08:08:36;;;;;;;8.52;4.70;;;12.00;87.70;;;;;;5017349;28;20033;-85
2022/12/06 08:11:07;;;;;;;11.18;4.65;;;11.90;87.50;;;;;;5015721;28;20029;-85
2022/12/06 08:13:34;;;;;;;8.57;4.50;;;11.90;87.60;;;;;;5009290;28;20030;-85
2022/12/06 08:16:07;;;;;;;9.50;4.28;;;11.80;87.40;;;;;;5018007;28;20030;-86
2022/12/06 08:18:33;;;;;;;7.65;3.90;;;11.70;87.40;;;;;;5018199;28;20030;-85
2022/12/06 08:20:59;;;;;;;10.98;4.50;;;11.70;87.50;;;;;;5015897;28;20069;-85
2022/12/06 08:23:25;;;;;;;8.45;3.95;;;11.60;87.60;;;;;;5017721;28;20033;-86
2022/12/06 08:26:00;;;;;;;9.25;4.70;;;11.60;87.50;;;;;;5013198;28;20064;-84
2022/12/06 08:28:28;;;;;;;10.73;4.63;;;11.50;87.40;;;;;;5016412;28;20433;-85
2022/12/06 08:30:53;;;;;;;9.43;4.57;;;11.50;87.40;;;;;;5009998;28;20565;-85
2022/12/06 08:33:20;;;;;;;8.25;4.70;;;11.50;87.40;;;;;;4999036;28;20031;-85
2022/12/06 08:35:47;;;;;;;12.95;4.70;;;11.40;87.40;;;;;;5017095;28;20482;-85
2022/12/06 08:38:13;;;;;;;9.02;4.47;;;11.40;87.80;;;;;;5017937;28;20037;-86
2022/12/06 08:40:38;;;;;;;9.18;4.60;;;11.40;87.30;;;;;;5012620;28;20030;-85
2022/12/06 08:43:04;;;;;;;8.20;4.43;;;11.30;87.30;;;;;;5011305;28;20035;-85
2022/12/06 08:45:29;;;;;;;9.30;4.32;;;11.30;87.10;;;;;;5002074;28;20031;-84
2022/12/06 08:47:55;;;;;;;7.30;4.35;;;11.30;87.10;;;;;;5001947;28;20053;-84
2022/12/06 08:50:20;;;;;;;9.27;4.88;;;11.30;87.00;;;;;;5002973;28;20371;-85
2022/12/06 08:52:46;;;;;;;9.30;4.70;;;11.30;87.00;;;;;;5020918;28;20021;-85
2022/12/06 08:55:11;;;;;;;11.85;5.25;;;11.20;86.90;;;;;;5016293;28;20437;-84
2022/12/06 08:57:37;;;;;;;8.77;4.43;;;11.20;87.30;;;;;;5031781;28;20643;-84
2022/12/06 09:00:04;;;;;;;11.52;4.85;;;11.20;86.90;;;;;;5019344;28;20034;-86
2022/12/06 09:02:30;;;;;;;7.95;4.15;;;11.20;86.90;;;;;;5012208;28;20022;-85
2022/12/06 09:04:55;;;;;;;8.88;4.40;;;11.20;86.70;;;;;;5021136;28;20040;-85
2022/12/06 09:07:22;;;;;;;10.35;4.65;;;11.10;86.60;;;;;;5020354;28;20024;-86
2022/12/06 09:09:47;;;;;;;9.55;4.68;;;11.10;86.70;;;;;;5018848;28;20037;-85
2022/12/06 09:12:13;;;;;;;8.65;4.68;;;11.10;86.60;;;;;;5019174;28;20034;-83
2022/12/06 09:14:39;;;;;;;8.95;4.53;;;11.10;86.50;;;;;;5006743;28;20064;-86
2022/12/06 09:17:05;;;;;;;8.77;4.63;;;11.10;86.50;;;;;;5020566;28;20102;-85
2022/12/06 09:19:31;;;;;;;8.18;4.60;;;11.10;86.50;;;;;;5020472;28;20022;-85
2022/12/06 09:21:56;;;;;;;8.68;4.57;;;11.00;86.40;;;;;;5015280;28;20577;-84
2022/12/06 09:24:22;;;;;;;8.05;4.43;;;11.00;86.40;;;;;;5009709;28;20018;-85
2022/12/06 09:26:48;;;;;;;8.63;4.60;;;11.00;86.40;;;;;;5020818;28;20022;-85
2022/12/06 09:29:14;;;;;;;8.88;4.22;;;11.00;86.40;;;;;;5018367;28;20025;-85
2022/12/06 09:31:40;;;;;;;8.52;4.72;;;11.00;86.30;;;;;;5018236;28;20030;-86
2022/12/06 09:34:10;;;;;;;8.35;4.38;;;11.00;86.30;;;;;;5019165;28;20036;-85
2022/12/06 09:37:04;;;;;;;8.82;5.13;;;11.00;86.40;;;;;;5021695;28;20056;-85
2022/12/06 09:39:37;;;;;;;7.90;4.72;;;11.00;86.30;;;;;;5021440;28;20045;-85
2022/12/06 09:42:25;;;;;;;8.77;5.18;;;10.90;86.20;;;;;;5018052;28;20375;-86
2022/12/06 09:45:28;;;;;;;9.02;4.78;;;10.90;86.20;;;;;;5021748;28;20029;-85
2022/12/06 09:48:25;;;;;;;8.18;4.78;;;10.90;86.20;;;;;;4999961;28;20029;-85
2022/12/06 09:51:09;;;;;;;8.02;4.53;;;10.90;86.10;;;;;;5014405;28;20127;-83
2022/12/06 09:53:56;;;;;;;8.07;4.35;;;10.90;86.60;;;;;;5014980;28;20049;-82
2022/12/06 09:56:41;;;;;;;8.85;4.38;;;10.90;86.10;;;;;;5017384;28;20047;-81
2022/12/06 09:59:16;;;;;;;7.95;4.28;;;10.90;86.00;;;;;;5018564;28;20453;-86
2022/12/06 10:01:59;;;;;;;8.05;4.93;;;10.90;85.60;;;;;;5017988;28;20057;-85
2022/12/06 10:04:46;;;;;;;8.70;4.63;;;10.90;85.60;;;;;;5017825;28;20101;-85
2022/12/06 10:07:36;;;;;;;8.57;4.47;;;10.90;85.50;;;;;;5019279;28;20026;-86
2022/12/06 10:10:16;;;;;;;7.15;4.18;;;10.90;85.50;;;;;;5017199;28;20040;-84
2022/12/06 10:12:47;;;;;;;7.95;4.45;;;10.90;85.30;;;;;;5015994;28;20520;-85
2022/12/06 10:15:28;;;;;;;8.80;4.32;;;10.90;85.20;;;;;;5017191;28;20026;-85
2022/12/06 10:18:05;;;;;;;8.82;4.30;;;10.90;85.10;;;;;;5018190;28;20028;-84
2022/12/06 10:20:44;;;;;;;7.53;4.35;;;10.90;85.10;;;;;;5016816;28;20032;-86
2022/12/06 10:23:31;;;;;;;9.32;4.47;;;10.90;85.10;;;;;;5016474;28;20026;-85
2022/12/06 10:26:09;;;;;;;7.38;4.45;;;10.90;85.10;;;;;;5014020;28;20165;-88
2022/12/06 10:28:56;;;;;;;12.63;4.75;;;10.90;85.10;;;;;;5006823;28;20088;-84
2022/12/06 10:31:29;;;;;;;8.43;4.75;;;10.90;85.10;;;;;;5013282;28;20045;-84
2022/12/06 10:34:05;;;;;;;7.65;4.50;;;10.80;85.10;;;;;;5017152;28;20069;-84
2022/12/06 10:36:58;;;;;;;7.13;4.47;;;10.80;85.10;;;;;;5005705;28;20110;-84
2022/12/06 10:39:39;;;;;;;7.80;4.32;;;10.80;85.20;;;;;;4998152;28;20037;-85
2022/12/06 10:42:41;;;;;;;8.02;4.78;;;10.80;85.30;;;;;;5005209;28;20109;-82
2022/12/06 10:48:35;;;;;;;7.47;3.95;;;10.70;85.30;;;;;;5022737;28;20080;-84
2022/12/06 10:51:17;;;;;;;7.93;4.07;;;10.70;85.40;;;;;;5026480;28;20052;-86
2022/12/06 10:53:51;;;;;;;7.55;4.40;;;10.70;85.40;;;;;;5019809;28;20026;-85
2022/12/06 10:56:27;;;;;;;8.30;4.80;;;10.70;85.50;;;;;;5027499;28;20030;-85
2022/12/06 10:59:19;;;;;;;6.38;4.03;;;10.70;85.50;;;;;;5027845;28;20391;-84
2022/12/06 11:01:45;;;;;;;7.90;4.63;;;10.70;85.50;;;;;;4998915;28;20030;-77
2022/12/06 11:04:23;;;;;;;7.47;4.20;;;10.70;85.50;;;;;;5012266;28;20030;-77
2022/12/06 11:06:54;;;;;;;9.15;4.22;;;10.70;85.60;;;;;;5012891;28;20018;-77
2022/12/06 11:09:29;;;;;;;7.65;4.07;;;10.60;85.50;;;;;;5001027;28;20065;-84
2022/12/06 11:11:54;;;;;;;8.68;4.28;;;10.70;85.50;;;;;;4996591;28;20041;-83
2022/12/06 11:14:22;;;;;;;6.80;4.22;;;10.70;85.60;;;;;;5011334;28;20030;-85
2022/12/06 11:16:56;;;;;;;6.85;4.00;;;10.70;85.50;;;;;;5020136;28;20515;-86
2022/12/06 11:19:24;;;;;;;7.38;4.38;;;10.70;85.50;;;;;;5004222;28;20030;-86
2022/12/06 11:21:57;;;;;;;7.97;4.25;;;10.60;85.50;;;;;;5019113;28;20025;-84
2022/12/06 11:24:34;;;;;;;6.55;4.22;;;10.60;85.50;;;;;;5023340;28;20529;-86
2022/12/06 11:27:16;;;;;;;7.97;4.53;;;10.60;85.50;;;;;;5018205;28;20159;-85
2022/12/06 11:29:46;;;;;;;7.05;4.00;;;10.60;85.50;;;;;;5019876;28;20026;-79
2022/12/06 11:32:13;;;;;;;8.32;4.47;;;10.60;85.50;;;;;;5031341;28;20026;-78
2022/12/06 11:34:48;;;;;;;6.50;4.30;;;10.60;85.50;;;;;;5020616;28;20025;-85
2022/12/06 11:37:20;;;;;;;7.20;4.28;;;10.60;85.50;;;;;;5021469;28;20426;-85
2022/12/06 11:39:50;;;;;;;7.43;4.20;;;10.60;85.50;;;;;;5014644;28;20047;-85
2022/12/06 11:42:22;;;;;;;6.93;4.32;;;10.60;85.50;;;;;;5017888;28;20499;-86
2022/12/06 11:44:56;;;;;;;7.28;4.25;;;10.60;85.70;;;;;;5020892;28;20373;-86
2022/12/06 11:47:22;;;;;;;6.85;4.38;;;10.60;85.50;;;;;;5019980;28;20058;-86
2022/12/06 11:49:51;;;;;;;7.47;4.00;;;10.60;85.60;;;;;;5018728;28;20104;-84
2022/12/06 11:52:22;;;;;;;6.95;4.22;;;10.60;85.50;;;;;;5018678;28;20026;-85
2022/12/06 11:54:54;;;;;;;7.13;3.83;;;10.60;85.50;;;;;;5019124;28;20074;-84
2022/12/06 11:57:24;;;;;;;6.38;4.03;;;10.60;85.50;;;;;;5018871;28;20034;-85
2022/12/06 12:00:26;;;;;;;6.60;4.00;;;10.60;85.60;;;;;;5022331;28;20028;-84
2022/12/06 12:02:54;;;;;;;7.18;4.45;;;10.60;85.60;;;;;;4981355;28;20037;-82
2022/12/06 12:05:37;;;;;;;6.25;4.18;;;10.60;85.60;;;;;;5004044;28;20037;-85
2022/12/06 12:08:14;;;;;;;6.70;3.80;;;10.60;85.60;;;;;;5021028;28;20050;-84
2022/12/06 12:10:43;;;;;;;6.63;4.00;;;10.60;85.50;;;;;;5008103;28;20029;-85
2022/12/06 12:13:53;;;;;;;6.57;4.25;;;10.60;85.50;;;;;;5015395;28;20038;-85
2022/12/06 12:16:16;;;;;;;6.78;4.43;;;10.50;85.50;;;;;;5023384;28;20125;-85
2022/12/06 12:18:50;;;;;;;;;;;10.50;85.50;;;;;;5023431;28;20064;-86
2022/12/06 12:21:16;;;;;;;6.55;4.07;;;10.50;85.50;;;;;;5010859;28;20404;-84
2022/12/06 12:23:45;;;;;;;6.85;3.67;;;10.60;85.40;;;;;;5020009;28;20643;-85
2022/12/06 12:26:16;;;;;;;7.72;4.05;;;10.60;85.40;;;;;;5019972;28;20022;-85
2022/12/06 12:29:03;;;;;;;7.25;3.90;;;10.60;85.20;;;;;;5012363;28;20101;-85
2022/12/06 12:31:29;;;;;;;7.15;4.38;;;10.60;85.10;;;;;;5011204;28;20026;-86
2022/12/06 12:34:20;;;;;;;6.63;4.32;;;10.60;85.00;;;;;;5017565;28;20394;-86
2022/12/06 12:36:46;;;;;;;;;;;10.60;85.00;;;;;;5017036;28;20034;-85
2022/12/06 12:39:24;;;;;;;11.80;4.50;;;10.60;84.80;;;;;;5019018;28;19913;-85
2022/12/06 12:41:49;;;;;;;6.93;3.95;;;10.60;84.80;;;;;;5010823;28;20069;-86
2022/12/06 12:44:22;;;;;;;7.68;4.32;;;10.60;84.80;;;;;;4998668;28;20027;-85
2022/12/06 12:47:10;;;;;;;8.38;4.40;;;10.60;84.70;;;;;;4994021;28;20528;-86
2022/12/06 12:49:40;;;;;;;6.70;3.92;;;10.60;84.70;;;;;;4996575;28;20023;-85
2022/12/06 12:52:27;;;;;;;6.72;4.10;;;10.60;84.90;;;;;;5012434;28;20038;-85
2022/12/06 12:55:12;;;;;;;8.10;4.38;;;10.60;85.10;;;;;;5017933;28;20068;-85
2022/12/06 12:57:39;;;;;;;6.82;4.60;;;10.60;85.20;;;;;;5014660;28;20026;-84
2022/12/06 13:00:05;;;;;;;7.53;3.88;;;10.50;85.20;;;;;;4991985;28;20526;-84
2022/12/06 13:02:33;;;;;;;7.20;4.07;;;10.60;85.20;;;;;;5008962;28;20030;-85
2022/12/06 13:05:19;;;;;;;6.78;4.35;;;10.50;85.20;;;;;;5016112;28;20014;-83
2022/12/06 13:07:46;;;;;;;6.40;4.00;;;10.50;85.30;;;;;;5016236;28;20095;-85
2022/12/06 13:10:36;;;;;;;7.70;3.92;;;10.50;85.30;;;;;;5014275;28;20481;-85
2022/12/06 13:13:15;;;;;;;7.15;3.97;;;10.50;85.40;;;;;;5011315;28;20033;-86
2022/12/06 13:15:53;;;;;;;6.57;4.55;;;10.50;85.40;;;;;;5007454;28;20046;-85
2022/12/06 13:18:25;;;;;;;10.63;9.63;;;10.40;85.40;;;;;;5020992;28;20105;-86
2022/12/06 13:20:52;;;;;;;;;;;10.50;86.00;;;;;;5016748;28;20033;-79
2022/12/06 13:23:25;;;;;;;6.97;5.50;;;10.50;85.50;;;;;;5017846;28;19913;-84
2022/12/06 13:26:13;;;;;;;9.52;7.20;;;10.50;85.50;;;;;;5008331;28;20010;-84
2022/12/06 13:28:45;;;;;;;6.85;4.47;;;10.50;85.50;;;;;;5017638;28;20662;-85
2022/12/06 13:31:15;;;;;;;6.80;5.25;;;10.50;85.50;;;;;;5005703;28;20382;-84
2022/12/06 13:33:47;;;;;;;11.52;10.52;;;10.50;85.50;;;;;;5004846;28;20405;-84